Sea Cloud II — 9HUE6 — position and weather

sailwx.info

Track history (hours):
 
Tides and Currents Weather Stations Pressure Air Temp Water Temp Dewpoint Dewpoint Depression Visibility Wind Speed Wind Dir Waves Ship Positions

Sea Cloud II

Ship's website: http://www.seacloud.com/en/the-ships/sea-cloud-ii.html

Last reported at 2018-Jul-22 05:33 UTC. Time now 2018-Jul-22 16:41 UTC.
Position N 56°27' W 002°50'.

Length 117 m; draft 6 m.

Type: Passenger vessel. MMSI: 248953000.

Date/timePositionNaut miles runAvg speedWind from/ knotsBaromVisibWave heightAir tempDewpointWater temp
2018-Jul-22 05:33N 56°27' W 002°50'1 9.1
2018-Jul-22 05:30N 56°27' W 002°50'4 8.4
2018-Jul-22 05:00N 56°27' W 002°42'3 6.2
2018-Jul-22 04:30N 56°28' W 002°37'2 4.3
2018-Jul-22 04:00N 56°29' W 002°33'2 3.5
2018-Jul-22 03:30N 56°28' W 002°30'1 2.4
2018-Jul-22 03:00N 56°28' W 002°28'4 3.7
2018-Jul-22 02:00N 56°28' W 002°21'4 5.4
2018-Jul-22 01:15N 56°28' W 002°14'12 5.8
2018-Jul-21 23:08N 56°17' W 002°25'1 6.6
2018-Jul-21 23:00N 56°17' W 002°26'3 6.6
2018-Jul-21 22:29N 56°15' W 002°31'3 6.9
2018-Jul-21 22:00N 56°13' W 002°36'3 6.9
2018-Jul-21 21:30N 56°11' W 002°41'4 7.0
2018-Jul-21 21:00N 56°09' W 002°46'3 7.0
2018-Jul-21 20:30N 56°07' W 002°51'3 6.7
2018-Jul-21 20:00N 56°05' W 002°56'3 6.7
2018-Jul-21 19:30N 56°03' W 003°01'2 4.9
2018-Jul-21 19:00N 56°02' W 003°05'4 7.2
2018-Jul-21 18:30N 56°00' W 003°11'1 1.1
2018-Jul-21 17:42N 55°59' W 003°11'0 0.5
2018-Jul-21 17:24N 55°59' W 003°11'0 0.8
2018-Jul-21 17:00N 55°59' W 003°11'0 0.0
2018-Jul-21 16:30N 55°59' W 003°11'0 0.0
2018-Jul-21 16:00N 55°59' W 003°11'0 0.0
2018-Jul-21 15:30N 55°59' W 003°11'0 0.0
2018-Jul-21 15:00N 55°59' W 003°11'0 0.0
2018-Jul-21 14:30N 55°59' W 003°11'0 0.0
2018-Jul-21 13:30N 55°59' W 003°11'0 0.0
2018-Jul-21 13:00N 55°59' W 003°11'0 0.0
2018-Jul-21 12:30N 55°59' W 003°11'0 0.0
2018-Jul-21 12:00N 55°59' W 003°11'0 0.0
2018-Jul-21 11:30N 55°59' W 003°11'0 0.0
2018-Jul-21 11:00N 55°59' W 003°11'0 0.0
2018-Jul-21 10:30N 55°59' W 003°11'0 0.0
2018-Jul-21 10:00N 55°59' W 003°11'0 0.0
2018-Jul-21 09:30N 55°59' W 003°11'0 0.0
2018-Jul-21 09:00N 55°59' W 003°11'0 0.0
2018-Jul-21 08:30N 55°59' W 003°11'0 0.0
2018-Jul-21 08:00N 55°59' W 003°11'0 0.0
2018-Jul-21 07:30N 55°59' W 003°11'0 0.0
2018-Jul-21 07:00N 55°59' W 003°11'0 0.0
2018-Jul-21 06:30N 55°59' W 003°11'0 0.7
2018-Jul-21 05:59N 55°59' W 003°11'0 0.2
2018-Jul-21 05:27N 55°59' W 003°11'1 2.5
2018-Jul-21 05:00N 56°00' W 003°11'3 6.4
2018-Jul-21 04:28N 56°01' W 003°06'4 7.7
2018-Jul-21 04:00N 56°03' W 003°00'2 3.8
2018-Jul-21 03:30N 56°04' W 002°57'1 1.4
2018-Jul-21 03:00N 56°05' W 002°57'2 4.1
2018-Jul-21 02:30N 56°06' W 002°54'1 2.7
2018-Jul-21 02:00N 56°07' W 002°52'2 4.0
2018-Jul-21 01:30N 56°08' W 002°49'3 5.7
2018-Jul-21 01:00N 56°09' W 002°44'3 5.8
2018-Jul-21 00:30N 56°11' W 002°40'3 6.2
2018-Jul-21 00:00N 56°13' W 002°36'3 6.0
2018-Jul-20 23:30N 56°15' W 002°31'50 7.2
2018-Jul-20 16:33N 57°01' W 001°54'0 7.9
2018-Jul-20 16:29N 57°01' W 001°54'4 7.8
2018-Jul-20 15:58N 57°04' W 001°50'1 1.6
2018-Jul-20 15:30N 57°05' W 001°51'1 2.4
2018-Jul-20 15:00N 57°06' W 001°53'1 2.2
2018-Jul-20 14:28N 57°06' W 001°55'2 3.2
2018-Jul-20 13:56N 57°06' W 001°58'2 3.8
2018-Jul-20 13:30N 57°06' W 002°01'3 5.2
2018-Jul-20 13:00N 57°09' W 002°02'2 3.5
2018-Jul-20 12:30N 57°09' W 002°05'0 0.0
2018-Jul-20 11:59N 57°09' W 002°05'0 0.0
2018-Jul-20 11:29N 57°09' W 002°05'0 0.0
2018-Jul-20 10:59N 57°09' W 002°05'0 0.0
2018-Jul-20 10:29N 57°09' W 002°05'0 0.0
2018-Jul-20 09:59N 57°09' W 002°05'0 0.0
2018-Jul-20 09:29N 57°09' W 002°05'0 0.0
2018-Jul-20 08:59N 57°09' W 002°05'0 0.0
2018-Jul-20 08:29N 57°09' W 002°05'0 0.0
2018-Jul-20 07:59N 57°09' W 002°05'0 0.0
2018-Jul-20 07:29N 57°09' W 002°05'0 0.0
2018-Jul-20 06:59N 57°09' W 002°05'0 0.0
2018-Jul-20 06:29N 57°09' W 002°05'0 0.0
2018-Jul-20 05:59N 57°09' W 002°05'0 0.0
2018-Jul-20 05:29N 57°09' W 002°05'0 0.9
2018-Jul-20 05:01N 57°09' W 002°05'2 3.2
2018-Jul-20 04:30N 57°09' W 002°02'2 3.8
2018-Jul-20 04:00N 57°11' W 001°59'1 2.9
2018-Jul-20 03:30N 57°12' W 001°57'2 3.2
2018-Jul-20 03:00N 57°13' W 001°56'2 3.6
2018-Jul-20 02:30N 57°15' W 001°54'2 4.7
2018-Jul-20 02:00N 57°17' W 001°52'10 6.2
2018-Jul-20 00:18N 57°26' W 001°42'2 5.8
2018-Jul-19 23:53N 57°28' W 001°40'3 6.8
2018-Jul-19 23:29N 57°30' W 001°38'4 6.2
2018-Jul-19 22:49N 57°34' W 001°38'2 6.3
2018-Jul-19 22:28N 57°36' W 001°39'2 4.8
2018-Jul-19 22:00N 57°38' W 001°41'8710.7
2018-Jul-19 13:57N 58°59' W 002°40'512.2
2018-Jul-19 13:30N 59°01' W 002°50'4 8.3
2018-Jul-19 13:00N 59°00' W 002°58'0 0.3
2018-Jul-19 12:29N 59°00' W 002°59'0 0.0
2018-Jul-19 11:59N 59°00' W 002°59'0 0.0
2018-Jul-19 11:29N 59°00' W 002°59'0 0.0
2018-Jul-19 10:59N 59°00' W 002°59'0 0.0
2018-Jul-19 10:29N 59°00' W 002°59'0 0.0
2018-Jul-19 09:59N 59°00' W 002°59'0 0.0
2018-Jul-19 09:29N 59°00' W 002°59'0 0.0
2018-Jul-19 08:59N 59°00' W 002°59'0 0.0
2018-Jul-19 08:29N 59°00' W 002°59'0 0.0
2018-Jul-19 07:59N 59°00' W 002°59'0 0.0
2018-Jul-19 07:29N 59°00' W 002°59'0 0.0
2018-Jul-19 06:59N 59°00' W 002°59'0 0.7
2018-Jul-19 06:30N 59°00' W 002°59'4 8.3
2018-Jul-19 06:00N 59°01' W 002°50'4 7.0
2018-Jul-19 05:30N 59°00' W 002°44'2 4.8
2018-Jul-19 05:00N 59°01' W 002°39'4 4.5
2018-Jul-19 04:03N 59°00' W 002°31'0 4.5
2018-Jul-19 04:00N 59°00' W 002°30'  
2018-Jul-16 21:01N 60°41' E 004°20'0 6.2
2018-Jul-16 21:00N 60°41' E 004°20'3 6.3
2018-Jul-16 20:30N 60°43' E 004°26'3 6.5
2018-Jul-16 20:00N 60°44' E 004°32'3 6.2
2018-Jul-16 19:30N 60°45' E 004°38'5 9.3
2018-Jul-16 18:59N 60°43' E 004°47'611.6
2018-Jul-16 18:30N 60°38' E 004°53'612.0
2018-Jul-16 18:00N 60°32' E 004°56'611.9
2018-Jul-16 17:30N 60°27' E 005°02'611.3
2018-Jul-16 17:00N 60°23' E 005°10'4 8.8
2018-Jul-16 16:30N 60°24' E 005°19'0 0.0
2018-Jul-16 15:59N 60°24' E 005°19'0 0.0
2018-Jul-16 15:29N 60°24' E 005°19'0 0.0
2018-Jul-16 14:59N 60°24' E 005°19'0 0.0
2018-Jul-16 14:29N 60°24' E 005°19'0 0.0
2018-Jul-16 13:56N 60°24' E 005°19'0 0.0
2018-Jul-16 13:29N 60°24' E 005°19'0 0.0
2018-Jul-16 12:59N 60°24' E 005°19'0 0.0
2018-Jul-16 12:29N 60°24' E 005°19'0 0.0
2018-Jul-16 11:59N 60°24' E 005°19'0 0.0
2018-Jul-16 11:29N 60°24' E 005°19'0 0.0
2018-Jul-16 10:59N 60°24' E 005°19'0 0.0
2018-Jul-16 10:29N 60°24' E 005°19'0 0.0
2018-Jul-16 09:59N 60°24' E 005°19'0 0.0
2018-Jul-16 09:29N 60°24' E 005°19'0 0.0
2018-Jul-16 08:59N 60°24' E 005°19'0 0.0
2018-Jul-16 08:29N 60°24' E 005°19'0 0.0
2018-Jul-16 07:59N 60°24' E 005°19'0 0.0
2018-Jul-16 07:29N 60°24' E 005°19'0 0.0
2018-Jul-16 06:59N 60°24' E 005°19'0 0.0
2018-Jul-16 06:29N 60°24' E 005°19'0 0.0
2018-Jul-16 05:59N 60°24' E 005°19'0 0.3
2018-Jul-16 05:29N 60°24' E 005°19'1 2.5
2018-Jul-16 05:00N 60°24' E 005°16'4 8.5
2018-Jul-16 04:30N 60°24' E 005°08'510.3
2018-Jul-16 04:00N 60°28' E 005°00'510.6
2018-Jul-16 03:30N 60°33' E 004°56'510.5
2018-Jul-16 03:00N 60°37' E 004°53'510.4
2018-Jul-16 02:30N 60°42' E 004°48'4 7.7
2018-Jul-16 02:00N 60°45' E 004°41'3 6.4
2018-Jul-16 01:30N 60°43' E 004°35'3 6.8
2018-Jul-16 01:00N 60°40' E 004°36'3 6.8
2018-Jul-16 00:30N 60°37' E 004°36'4 7.0
2018-Jul-16 00:00N 60°33' E 004°37'3 6.8
2018-Jul-15 23:30N 60°30' E 004°37'4 7.1
2018-Jul-15 22:59N 60°26' E 004°37'4 8.3
2018-Jul-15 22:30N 60°22' E 004°37'510.9
2018-Jul-15 22:00N 60°17' E 004°38'4 7.7
2018-Jul-15 21:30N 60°13' E 004°38'4 8.3
2018-Jul-15 21:00N 60°08' E 004°38'510.7
2018-Jul-15 20:30N 60°03' E 004°38'611.0
2018-Jul-15 20:00N 59°58' E 004°39'510.8
2018-Jul-15 19:30N 59°52' E 004°39'610.5
2018-Jul-15 18:59N 59°47' E 004°40'510.1
2018-Jul-15 18:30N 59°42' E 004°40'510.1
2018-Jul-15 18:00N 59°37' E 004°41'29 9.9
2018-Jul-15 15:07N 59°09' E 004°50'1 9.8
2018-Jul-15 14:58N 59°08' E 004°52'5 9.8
2018-Jul-15 14:30N 59°05' E 004°60'5 9.6
2018-Jul-15 14:00N 59°04' E 005°09'5 9.2
2018-Jul-15 13:30N 59°05' E 005°17'5 9.6
2018-Jul-15 13:01N 59°07' E 005°26'4 8.7
2018-Jul-15 12:30N 59°05' E 005°33'611.1
2018-Jul-15 12:00N 59°01' E 005°40'3 5.8
2018-Jul-15 11:30N 58°58' E 005°44'0 0.0
2018-Jul-15 11:00N 58°58' E 005°44'0 0.0
2018-Jul-15 10:30N 58°58' E 005°44'0 0.0
2018-Jul-15 10:00N 58°58' E 005°44'0 0.0
2018-Jul-15 09:30N 58°58' E 005°44'0 0.0
2018-Jul-15 09:00N 58°58' E 005°44'0 0.0
2018-Jul-15 08:30N 58°58' E 005°44'0 0.0
2018-Jul-15 08:00N 58°58' E 005°44'0 0.0
2018-Jul-15 07:30N 58°58' E 005°44'0 0.0
2018-Jul-15 07:00N 58°58' E 005°44'0 0.0
2018-Jul-15 06:30N 58°58' E 005°44'0 0.0
2018-Jul-15 06:00N 58°58' E 005°44'0 0.1
2018-Jul-15 05:30N 58°59' E 005°44'2 4.8
2018-Jul-15 05:00N 59°00' E 005°41'4 9.0
2018-Jul-15 04:30N 59°02' E 005°33'510.1
2018-Jul-15 04:01N 58°57' E 005°33'510.0
2018-Jul-15 03:30N 58°52' E 005°31'4 7.7
2018-Jul-15 03:00N 58°49' E 005°27'3 5.9
2018-Jul-15 02:31N 58°47' E 005°24'3 6.2
2018-Jul-15 02:00N 58°44' E 005°24'3 6.7
2018-Jul-15 01:30N 58°41' E 005°25'4 7.9
2018-Jul-15 01:00N 58°37' E 005°27'4 7.5
2018-Jul-15 00:30N 58°34' E 005°31'3 6.9
2018-Jul-15 00:00N 58°31' E 005°35'4 9.0
2018-Jul-14 23:31N 58°27' E 005°39'510.1
2018-Jul-14 23:00N 58°23' E 005°44'510.4
2018-Jul-14 22:30N 58°18' E 005°48'5 9.7
2018-Jul-14 22:00N 58°13' E 005°51'3 6.7
2018-Jul-14 21:30N 58°10' E 005°53'3 6.7
2018-Jul-14 20:59N 58°07' E 005°55'3 6.5
2018-Jul-14 20:30N 58°04' E 005°57'24 2.4
2018-Jul-14 10:26N 57°51' E 006°36'3 6.8
2018-Jul-14 10:01N 57°51' E 006°41'3 6.4
2018-Jul-14 09:30N 57°52' E 006°47'3 6.6
2018-Jul-14 09:00N 57°52' E 006°53'3 6.8
2018-Jul-14 08:30N 57°52' E 006°60'4 7.0
2018-Jul-14 08:00N 57°52' E 007°06'4 7.4
2018-Jul-14 07:30N 57°53' E 007°13'4 7.5
2018-Jul-14 07:00N 57°54' E 007°20'4 7.5
2018-Jul-14 06:30N 57°54' E 007°27'4 8.2
2018-Jul-14 06:01N 57°55' E 007°34'5 8.9
2018-Jul-14 05:29N 57°56' E 007°43'5 9.2
2018-Jul-14 05:00N 57°58' E 007°51'510.0
2018-Jul-14 04:30N 57°59' E 007°59'510.5
2018-Jul-14 04:00N 58°02' E 008°08'510.6
2018-Jul-14 03:31N 58°04' E 008°17'510.5
2018-Jul-14 03:00N 58°07' E 008°25'510.6
2018-Jul-14 02:31N 58°10' E 008°33'510.9
2018-Jul-14 02:01N 58°14' E 008°41'510.9
2018-Jul-14 01:31N 58°17' E 008°49'510.7
2018-Jul-14 01:01N 58°20' E 008°57'510.7
2018-Jul-14 00:31N 58°24' E 009°05'510.7
2018-Jul-14 00:01N 58°27' E 009°13'510.7
2018-Jul-13 23:30N 58°31' E 009°21'510.3
2018-Jul-13 23:00N 58°34' E 009°29'5 9.9
2018-Jul-13 22:31N 58°37' E 009°36'5 9.5
2018-Jul-13 22:00N 58°40' E 009°44'5 9.6
2018-Jul-13 21:30N 58°43' E 009°51'510.1
2018-Jul-13 21:00N 58°46' E 009°58'510.6
2018-Jul-13 20:31N 58°49' E 010°06'610.9
2018-Jul-13 20:00N 58°53' E 010°15'510.5
2018-Jul-13 19:30N 58°56' E 010°23'510.4
2018-Jul-13 19:00N 58°59' E 010°31'4 9.0
2018-Jul-13 18:30N 59°03' E 010°35'4 7.1
2018-Jul-13 18:00N 59°06' E 010°35'510.2
2018-Jul-13 17:30N 59°10' E 010°41'5 9.4
2018-Jul-13 17:01N 59°15' E 010°43'510.3
2018-Jul-13 16:31N 59°20' E 010°40'510.0
2018-Jul-13 16:00N 59°24' E 010°35'5 9.7
2018-Jul-13 15:31N 59°29' E 010°34'5 9.9
2018-Jul-13 15:01N 59°34' E 010°37'10 9.9
2018-Jul-13 13:59N 59°44' E 010°34'510.4
2018-Jul-13 13:30N 59°49' E 010°35'510.9
2018-Jul-13 13:00N 59°53' E 010°41'2 4.1
2018-Jul-13 12:29N 59°54' E 010°44'0 0.0
2018-Jul-13 11:58N 59°54' E 010°44'0 0.0
2018-Jul-13 11:28N 59°54' E 010°44'0 0.0
2018-Jul-13 10:55N 59°54' E 010°44'0 0.0
2018-Jul-13 10:28N 59°54' E 010°44'0 0.0
2018-Jul-13 09:58N 59°54' E 010°44'0 0.0
2018-Jul-13 09:28N 59°54' E 010°44'0 0.0
2018-Jul-13 08:58N 59°54' E 010°44'0 0.0
2018-Jul-13 08:28N 59°54' E 010°44'0 0.0
2018-Jul-13 07:58N 59°54' E 010°44'0 0.0
2018-Jul-13 07:28N 59°54' E 010°44'0 0.0
2018-Jul-13 06:58N 59°54' E 010°44'0 0.0
2018-Jul-13 06:28N 59°54' E 010°44'0 0.0
2018-Jul-13 05:58N 59°54' E 010°44'0 0.8
2018-Jul-13 05:30N 59°54' E 010°44'4 8.7
2018-Jul-13 05:00N 59°51' E 010°37'510.7
2018-Jul-13 04:30N 59°46' E 010°35'510.9
2018-Jul-13 04:00N 59°41' E 010°37'611.3
2018-Jul-13 03:30N 59°35' E 010°38'510.7
2018-Jul-13 03:00N 59°30' E 010°35'510.6
2018-Jul-13 02:31N 59°25' E 010°34'510.7
2018-Jul-13 02:00N 59°20' E 010°36'510.6
2018-Jul-13 01:31N 59°14' E 010°38'510.6
2018-Jul-13 01:01N 59°09' E 010°38'5 9.6
2018-Jul-13 00:30N 59°05' E 010°35'4 7.1
2018-Jul-13 00:00N 59°01' E 010°36'3 6.7
2018-Jul-12 23:30N 58°58' E 010°35'3 6.7
2018-Jul-12 23:00N 58°55' E 010°33'4 8.3
2018-Jul-12 22:30N 58°50' E 010°32'4 7.5
2018-Jul-12 22:01N 58°47' E 010°33'4 7.3
2018-Jul-12 21:30N 58°43' E 010°33'510.8
2018-Jul-12 21:00N 58°38' E 010°34'511.0
2018-Jul-12 20:31N 58°32' E 010°35'4 8.1
2018-Jul-12 20:00N 58°28' E 010°36'4 7.6
2018-Jul-12 19:30N 58°24' E 010°37'4 7.4
2018-Jul-12 19:00N 58°21' E 010°37'4 7.4
2018-Jul-12 18:30N 58°17' E 010°37'4 7.6
2018-Jul-12 18:00N 58°13' E 010°37'3 6.5
2018-Jul-12 17:30N 58°11' E 010°42'4 7.2
2018-Jul-12 17:01N 58°10' E 010°48'4 7.5
2018-Jul-12 16:31N 58°08' E 010°54'3 5.3
2018-Jul-12 16:00N 58°06' E 010°57'3 5.5
2018-Jul-12 15:30N 58°03' E 010°56'2 4.0
2018-Jul-12 15:01N 58°01' E 010°53'2 3.8
2018-Jul-12 14:30N 57°60' E 010°52'2 3.4
2018-Jul-12 14:00N 57°58' E 010°51'1 1.5
2018-Jul-12 13:31N 57°58' E 010°50'1 1.1
2018-Jul-12 13:00N 57°57' E 010°49'0 0.9
2018-Jul-12 12:30N 57°57' E 010°48'0 0.9
2018-Jul-12 12:00N 57°57' E 010°47'0 0.8
2018-Jul-12 11:30N 57°56' E 010°47'1 1.0
2018-Jul-12 11:00N 57°57' E 010°46'1 1.1
2018-Jul-12 10:30N 57°57' E 010°45'0 0.9
2018-Jul-12 10:01N 57°57' E 010°44'1 2.0
2018-Jul-12 09:30N 57°56' E 010°43'1 2.6
2018-Jul-12 09:00N 57°56' E 010°40'2 3.2
2018-Jul-12 08:29N 57°55' E 010°38'2 3.7
2018-Jul-12 08:00N 57°54' E 010°35'2 3.0
2018-Jul-12 07:30N 57°53' E 010°33'2 4.5
2018-Jul-12 07:00N 57°51' E 010°31'4 7.0
2018-Jul-12 06:31N 57°50' E 010°37'510.2
2018-Jul-12 06:00N 57°48' E 010°46'  
Track history (hours):
 
Tides and Currents Weather Stations Pressure Air Temp Water Temp Dewpoint Dewpoint Depression Visibility Wind Speed Wind Dir Waves Ship Positions

Sea Cloud II

Ship's website: http://www.seacloud.com/en/the-ships/sea-cloud-ii.html

Last reported at 2018-Jul-22 05:33 UTC. Time now 2018-Jul-22 16:41 UTC.
Position N 56°27' W 002°50'.

Length 117 m; draft 6 m.

Type: Passenger vessel. MMSI: 248953000.

Date/timePositionNaut miles runAvg speedWind from/ knotsBaromVisibWave heightAir tempDewpointWater temp
2018-Jul-22 05:33N 56°27' W 002°50'1 9.1
2018-Jul-22 05:30N 56°27' W 002°50'4 8.4
2018-Jul-22 05:00N 56°27' W 002°42'3 6.2
2018-Jul-22 04:30N 56°28' W 002°37'2 4.3
2018-Jul-22 04:00N 56°29' W 002°33'2 3.5
2018-Jul-22 03:30N 56°28' W 002°30'1 2.4
2018-Jul-22 03:00N 56°28' W 002°28'4 3.7
2018-Jul-22 02:00N 56°28' W 002°21'4 5.4
2018-Jul-22 01:15N 56°28' W 002°14'12 5.8
2018-Jul-21 23:08N 56°17' W 002°25'1 6.6
2018-Jul-21 23:00N 56°17' W 002°26'3 6.6
2018-Jul-21 22:29N 56°15' W 002°31'3 6.9
2018-Jul-21 22:00N 56°13' W 002°36'3 6.9
2018-Jul-21 21:30N 56°11' W 002°41'4 7.0
2018-Jul-21 21:00N 56°09' W 002°46'3 7.0
2018-Jul-21 20:30N 56°07' W 002°51'3 6.7
2018-Jul-21 20:00N 56°05' W 002°56'3 6.7
2018-Jul-21 19:30N 56°03' W 003°01'2 4.9
2018-Jul-21 19:00N 56°02' W 003°05'4 7.2
2018-Jul-21 18:30N 56°00' W 003°11'1 1.1
2018-Jul-21 17:42N 55°59' W 003°11'0 0.5
2018-Jul-21 17:24N 55°59' W 003°11'0 0.8
2018-Jul-21 17:00N 55°59' W 003°11'0 0.0
2018-Jul-21 16:30N 55°59' W 003°11'0 0.0
2018-Jul-21 16:00N 55°59' W 003°11'0 0.0
2018-Jul-21 15:30N 55°59' W 003°11'0 0.0
2018-Jul-21 15:00N 55°59' W 003°11'0 0.0
2018-Jul-21 14:30N 55°59' W 003°11'0 0.0
2018-Jul-21 13:30N 55°59' W 003°11'0 0.0
2018-Jul-21 13:00N 55°59' W 003°11'0 0.0
2018-Jul-21 12:30N 55°59' W 003°11'0 0.0
2018-Jul-21 12:00N 55°59' W 003°11'0 0.0
2018-Jul-21 11:30N 55°59' W 003°11'0 0.0
2018-Jul-21 11:00N 55°59' W 003°11'0 0.0
2018-Jul-21 10:30N 55°59' W 003°11'0 0.0
2018-Jul-21 10:00N 55°59' W 003°11'0 0.0
2018-Jul-21 09:30N 55°59' W 003°11'0 0.0
2018-Jul-21 09:00N 55°59' W 003°11'0 0.0
2018-Jul-21 08:30N 55°59' W 003°11'0 0.0
2018-Jul-21 08:00N 55°59' W 003°11'0 0.0
2018-Jul-21 07:30N 55°59' W 003°11'0 0.0
2018-Jul-21 07:00N 55°59' W 003°11'0 0.0
2018-Jul-21 06:30N 55°59' W 003°11'0 0.7
2018-Jul-21 05:59N 55°59' W 003°11'0 0.2
2018-Jul-21 05:27N 55°59' W 003°11'1 2.5
2018-Jul-21 05:00N 56°00' W 003°11'3 6.4
2018-Jul-21 04:28N 56°01' W 003°06'4 7.7
2018-Jul-21 04:00N 56°03' W 003°00'2 3.8
2018-Jul-21 03:30N 56°04' W 002°57'1 1.4
2018-Jul-21 03:00N 56°05' W 002°57'2 4.1
2018-Jul-21 02:30N 56°06' W 002°54'1 2.7
2018-Jul-21 02:00N 56°07' W 002°52'2 4.0
2018-Jul-21 01:30N 56°08' W 002°49'3 5.7
2018-Jul-21 01:00N 56°09' W 002°44'3 5.8
2018-Jul-21 00:30N 56°11' W 002°40'3 6.2
2018-Jul-21 00:00N 56°13' W 002°36'3 6.0
2018-Jul-20 23:30N 56°15' W 002°31'50 7.2
2018-Jul-20 16:33N 57°01' W 001°54'0 7.9
2018-Jul-20 16:29N 57°01' W 001°54'4 7.8
2018-Jul-20 15:58N 57°04' W 001°50'1 1.6
2018-Jul-20 15:30N 57°05' W 001°51'1 2.4
2018-Jul-20 15:00N 57°06' W 001°53'1 2.2
2018-Jul-20 14:28N 57°06' W 001°55'2 3.2
2018-Jul-20 13:56N 57°06' W 001°58'2 3.8
2018-Jul-20 13:30N 57°06' W 002°01'3 5.2
2018-Jul-20 13:00N 57°09' W 002°02'2 3.5
2018-Jul-20 12:30N 57°09' W 002°05'0 0.0
2018-Jul-20 11:59N 57°09' W 002°05'0 0.0
2018-Jul-20 11:29N 57°09' W 002°05'0 0.0
2018-Jul-20 10:59N 57°09' W 002°05'0 0.0
2018-Jul-20 10:29N 57°09' W 002°05'0 0.0
2018-Jul-20 09:59N 57°09' W 002°05'0 0.0
2018-Jul-20 09:29N 57°09' W 002°05'0 0.0
2018-Jul-20 08:59N 57°09' W 002°05'0 0.0
2018-Jul-20 08:29N 57°09' W 002°05'0 0.0
2018-Jul-20 07:59N 57°09' W 002°05'0 0.0
2018-Jul-20 07:29N 57°09' W 002°05'0 0.0
2018-Jul-20 06:59N 57°09' W 002°05'0 0.0
2018-Jul-20 06:29N 57°09' W 002°05'0 0.0
2018-Jul-20 05:59N 57°09' W 002°05'0 0.0
2018-Jul-20 05:29N 57°09' W 002°05'0 0.9
2018-Jul-20 05:01N 57°09' W 002°05'2 3.2
2018-Jul-20 04:30N 57°09' W 002°02'2 3.8
2018-Jul-20 04:00N 57°11' W 001°59'1 2.9
2018-Jul-20 03:30N 57°12' W 001°57'2 3.2
2018-Jul-20 03:00N 57°13' W 001°56'2 3.6
2018-Jul-20 02:30N 57°15' W 001°54'2 4.7
2018-Jul-20 02:00N 57°17' W 001°52'10 6.2
2018-Jul-20 00:18N 57°26' W 001°42'2 5.8
2018-Jul-19 23:53N 57°28' W 001°40'3 6.8
2018-Jul-19 23:29N 57°30' W 001°38'4 6.2
2018-Jul-19 22:49N 57°34' W 001°38'2 6.3
2018-Jul-19 22:28N 57°36' W 001°39'2 4.8
2018-Jul-19 22:00N 57°38' W 001°41'8710.7
2018-Jul-19 13:57N 58°59' W 002°40'512.2
2018-Jul-19 13:30N 59°01' W 002°50'4 8.3
2018-Jul-19 13:00N 59°00' W 002°58'0 0.3
2018-Jul-19 12:29N 59°00' W 002°59'0 0.0
2018-Jul-19 11:59N 59°00' W 002°59'0 0.0
2018-Jul-19 11:29N 59°00' W 002°59'0 0.0
2018-Jul-19 10:59N 59°00' W 002°59'0 0.0
2018-Jul-19 10:29N 59°00' W 002°59'0 0.0
2018-Jul-19 09:59N 59°00' W 002°59'0 0.0
2018-Jul-19 09:29N 59°00' W 002°59'0 0.0
2018-Jul-19 08:59N 59°00' W 002°59'0 0.0
2018-Jul-19 08:29N 59°00' W 002°59'0 0.0
2018-Jul-19 07:59N 59°00' W 002°59'0 0.0
2018-Jul-19 07:29N 59°00' W 002°59'0 0.0
2018-Jul-19 06:59N 59°00' W 002°59'0 0.7
2018-Jul-19 06:30N 59°00' W 002°59'4 8.3
2018-Jul-19 06:00N 59°01' W 002°50'4 7.0
2018-Jul-19 05:30N 59°00' W 002°44'2 4.8
2018-Jul-19 05:00N 59°01' W 002°39'4 4.5
2018-Jul-19 04:03N 59°00' W 002°31'0 4.5
2018-Jul-19 04:00N 59°00' W 002°30'  
2018-Jul-16 21:01N 60°41' E 004°20'0 6.2
2018-Jul-16 21:00N 60°41' E 004°20'3 6.3
2018-Jul-16 20:30N 60°43' E 004°26'3 6.5
2018-Jul-16 20:00N 60°44' E 004°32'3 6.2
2018-Jul-16 19:30N 60°45' E 004°38'5 9.3
2018-Jul-16 18:59N 60°43' E 004°47'611.6
2018-Jul-16 18:30N 60°38' E 004°53'612.0
2018-Jul-16 18:00N 60°32' E 004°56'611.9
2018-Jul-16 17:30N 60°27' E 005°02'611.3
2018-Jul-16 17:00N 60°23' E 005°10'4 8.8
2018-Jul-16 16:30N 60°24' E 005°19'0 0.0
2018-Jul-16 15:59N 60°24' E 005°19'0 0.0
2018-Jul-16 15:29N 60°24' E 005°19'0 0.0
2018-Jul-16 14:59N 60°24' E 005°19'0 0.0
2018-Jul-16 14:29N 60°24' E 005°19'0 0.0
2018-Jul-16 13:56N 60°24' E 005°19'0 0.0
2018-Jul-16 13:29N 60°24' E 005°19'0 0.0
2018-Jul-16 12:59N 60°24' E 005°19'0 0.0
2018-Jul-16 12:29N 60°24' E 005°19'0 0.0
2018-Jul-16 11:59N 60°24' E 005°19'0 0.0
2018-Jul-16 11:29N 60°24' E 005°19'0 0.0
2018-Jul-16 10:59N 60°24' E 005°19'0 0.0
2018-Jul-16 10:29N 60°24' E 005°19'0 0.0
2018-Jul-16 09:59N 60°24' E 005°19'0 0.0
2018-Jul-16 09:29N 60°24' E 005°19'0 0.0
2018-Jul-16 08:59N 60°24' E 005°19'0 0.0
2018-Jul-16 08:29N 60°24' E 005°19'0 0.0
2018-Jul-16 07:59N 60°24' E 005°19'0 0.0
2018-Jul-16 07:29N 60°24' E 005°19'0 0.0
2018-Jul-16 06:59N 60°24' E 005°19'0 0.0
2018-Jul-16 06:29N 60°24' E 005°19'0 0.0
2018-Jul-16 05:59N 60°24' E 005°19'0 0.3
2018-Jul-16 05:29N 60°24' E 005°19'1 2.5
2018-Jul-16 05:00N 60°24' E 005°16'4 8.5
2018-Jul-16 04:30N 60°24' E 005°08'510.3
2018-Jul-16 04:00N 60°28' E 005°00'510.6
2018-Jul-16 03:30N 60°33' E 004°56'510.5
2018-Jul-16 03:00N 60°37' E 004°53'510.4
2018-Jul-16 02:30N 60°42' E 004°48'4 7.7
2018-Jul-16 02:00N 60°45' E 004°41'3 6.4
2018-Jul-16 01:30N 60°43' E 004°35'3 6.8
2018-Jul-16 01:00N 60°40' E 004°36'3 6.8
2018-Jul-16 00:30N 60°37' E 004°36'4 7.0
2018-Jul-16 00:00N 60°33' E 004°37'3 6.8
2018-Jul-15 23:30N 60°30' E 004°37'4 7.1
2018-Jul-15 22:59N 60°26' E 004°37'4 8.3
2018-Jul-15 22:30N 60°22' E 004°37'510.9
2018-Jul-15 22:00N 60°17' E 004°38'4 7.7
2018-Jul-15 21:30N 60°13' E 004°38'4 8.3
2018-Jul-15 21:00N 60°08' E 004°38'510.7
2018-Jul-15 20:30N 60°03' E 004°38'611.0
2018-Jul-15 20:00N 59°58' E 004°39'510.8
2018-Jul-15 19:30N 59°52' E 004°39'610.5
2018-Jul-15 18:59N 59°47' E 004°40'510.1
2018-Jul-15 18:30N 59°42' E 004°40'510.1
2018-Jul-15 18:00N 59°37' E 004°41'29 9.9
2018-Jul-15 15:07N 59°09' E 004°50'1 9.8
2018-Jul-15 14:58N 59°08' E 004°52'5 9.8
2018-Jul-15 14:30N 59°05' E 004°60'5 9.6
2018-Jul-15 14:00N 59°04' E 005°09'5 9.2
2018-Jul-15 13:30N 59°05' E 005°17'5 9.6
2018-Jul-15 13:01N 59°07' E 005°26'4 8.7
2018-Jul-15 12:30N 59°05' E 005°33'611.1
2018-Jul-15 12:00N 59°01' E 005°40'3 5.8
2018-Jul-15 11:30N 58°58' E 005°44'0 0.0
2018-Jul-15 11:00N 58°58' E 005°44'0 0.0
2018-Jul-15 10:30N 58°58' E 005°44'0 0.0
2018-Jul-15 10:00N 58°58' E 005°44'0 0.0
2018-Jul-15 09:30N 58°58' E 005°44'0 0.0
2018-Jul-15 09:00N 58°58' E 005°44'0 0.0
2018-Jul-15 08:30N 58°58' E 005°44'0 0.0
2018-Jul-15 08:00N 58°58' E 005°44'0 0.0
2018-Jul-15 07:30N 58°58' E 005°44'0 0.0
2018-Jul-15 07:00N 58°58' E 005°44'0 0.0
2018-Jul-15 06:30N 58°58' E 005°44'0 0.0
2018-Jul-15 06:00N 58°58' E 005°44'0 0.1
2018-Jul-15 05:30N 58°59' E 005°44'2 4.8
2018-Jul-15 05:00N 59°00' E 005°41'4 9.0
2018-Jul-15 04:30N 59°02' E 005°33'510.1
2018-Jul-15 04:01N 58°57' E 005°33'510.0
2018-Jul-15 03:30N 58°52' E 005°31'4 7.7
2018-Jul-15 03:00N 58°49' E 005°27'3 5.9
2018-Jul-15 02:31N 58°47' E 005°24'3 6.2
2018-Jul-15 02:00N 58°44' E 005°24'3 6.7
2018-Jul-15 01:30N 58°41' E 005°25'4 7.9
2018-Jul-15 01:00N 58°37' E 005°27'4 7.5
2018-Jul-15 00:30N 58°34' E 005°31'3 6.9
2018-Jul-15 00:00N 58°31' E 005°35'4 9.0
2018-Jul-14 23:31N 58°27' E 005°39'510.1
2018-Jul-14 23:00N 58°23' E 005°44'510.4
2018-Jul-14 22:30N 58°18' E 005°48'5 9.7
2018-Jul-14 22:00N 58°13' E 005°51'3 6.7
2018-Jul-14 21:30N 58°10' E 005°53'3 6.7
2018-Jul-14 20:59N 58°07' E 005°55'3 6.5
2018-Jul-14 20:30N 58°04' E 005°57'24 2.4
2018-Jul-14 10:26N 57°51' E 006°36'3 6.8
2018-Jul-14 10:01N 57°51' E 006°41'3 6.4
2018-Jul-14 09:30N 57°52' E 006°47'3 6.6
2018-Jul-14 09:00N 57°52' E 006°53'3 6.8
2018-Jul-14 08:30N 57°52' E 006°60'4 7.0
2018-Jul-14 08:00N 57°52' E 007°06'4 7.4
2018-Jul-14 07:30N 57°53' E 007°13'4 7.5
2018-Jul-14 07:00N 57°54' E 007°20'4 7.5
2018-Jul-14 06:30N 57°54' E 007°27'4 8.2
2018-Jul-14 06:01N 57°55' E 007°34'5 8.9
2018-Jul-14 05:29N 57°56' E 007°43'5 9.2
2018-Jul-14 05:00N 57°58' E 007°51'510.0
2018-Jul-14 04:30N 57°59' E 007°59'510.5
2018-Jul-14 04:00N 58°02' E 008°08'510.6
2018-Jul-14 03:31N 58°04' E 008°17'510.5
2018-Jul-14 03:00N 58°07' E 008°25'510.6
2018-Jul-14 02:31N 58°10' E 008°33'510.9
2018-Jul-14 02:01N 58°14' E 008°41'510.9
2018-Jul-14 01:31N 58°17' E 008°49'510.7
2018-Jul-14 01:01N 58°20' E 008°57'510.7
2018-Jul-14 00:31N 58°24' E 009°05'510.7
2018-Jul-14 00:01N 58°27' E 009°13'510.7
2018-Jul-13 23:30N 58°31' E 009°21'510.3
2018-Jul-13 23:00N 58°34' E 009°29'5 9.9
2018-Jul-13 22:31N 58°37' E 009°36'5 9.5
2018-Jul-13 22:00N 58°40' E 009°44'5 9.6
2018-Jul-13 21:30N 58°43' E 009°51'510.1
2018-Jul-13 21:00N 58°46' E 009°58'510.6
2018-Jul-13 20:31N 58°49' E 010°06'610.9
2018-Jul-13 20:00N 58°53' E 010°15'510.5
2018-Jul-13 19:30N 58°56' E 010°23'510.4
2018-Jul-13 19:00N 58°59' E 010°31'4 9.0
2018-Jul-13 18:30N 59°03' E 010°35'4 7.1
2018-Jul-13 18:00N 59°06' E 010°35'510.2
2018-Jul-13 17:30N 59°10' E 010°41'5 9.4
2018-Jul-13 17:01N 59°15' E 010°43'510.3
2018-Jul-13 16:31N 59°20' E 010°40'510.0
2018-Jul-13 16:00N 59°24' E 010°35'5 9.7
2018-Jul-13 15:31N 59°29' E 010°34'5 9.9
2018-Jul-13 15:01N 59°34' E 010°37'10 9.9
2018-Jul-13 13:59N 59°44' E 010°34'510.4
2018-Jul-13 13:30N 59°49' E 010°35'510.9
2018-Jul-13 13:00N 59°53' E 010°41'2 4.1
2018-Jul-13 12:29N 59°54' E 010°44'0 0.0
2018-Jul-13 11:58N 59°54' E 010°44'0 0.0
2018-Jul-13 11:28N 59°54' E 010°44'0 0.0
2018-Jul-13 10:55N 59°54' E 010°44'0 0.0
2018-Jul-13 10:28N 59°54' E 010°44'0 0.0
2018-Jul-13 09:58N 59°54' E 010°44'0 0.0
2018-Jul-13 09:28N 59°54' E 010°44'0 0.0
2018-Jul-13 08:58N 59°54' E 010°44'0 0.0
2018-Jul-13 08:28N 59°54' E 010°44'0 0.0
2018-Jul-13 07:58N 59°54' E 010°44'0 0.0
2018-Jul-13 07:28N 59°54' E 010°44'0 0.0
2018-Jul-13 06:58N 59°54' E 010°44'0 0.0
2018-Jul-13 06:28N 59°54' E 010°44'0 0.0
2018-Jul-13 05:58N 59°54' E 010°44'0 0.8
2018-Jul-13 05:30N 59°54' E 010°44'4 8.7
2018-Jul-13 05:00N 59°51' E 010°37'510.7
2018-Jul-13 04:30N 59°46' E 010°35'510.9
2018-Jul-13 04:00N 59°41' E 010°37'611.3
2018-Jul-13 03:30N 59°35' E 010°38'510.7
2018-Jul-13 03:00N 59°30' E 010°35'510.6
2018-Jul-13 02:31N 59°25' E 010°34'510.7
2018-Jul-13 02:00N 59°20' E 010°36'510.6
2018-Jul-13 01:31N 59°14' E 010°38'510.6
2018-Jul-13 01:01N 59°09' E 010°38'5 9.6
2018-Jul-13 00:30N 59°05' E 010°35'4 7.1
2018-Jul-13 00:00N 59°01' E 010°36'3 6.7
2018-Jul-12 23:30N 58°58' E 010°35'3 6.7
2018-Jul-12 23:00N 58°55' E 010°33'4 8.3
2018-Jul-12 22:30N 58°50' E 010°32'4 7.5
2018-Jul-12 22:01N 58°47' E 010°33'4 7.3
2018-Jul-12 21:30N 58°43' E 010°33'510.8
2018-Jul-12 21:00N 58°38' E 010°34'511.0
2018-Jul-12 20:31N 58°32' E 010°35'4 8.1
2018-Jul-12 20:00N 58°28' E 010°36'4 7.6
2018-Jul-12 19:30N 58°24' E 010°37'4 7.4
2018-Jul-12 19:00N 58°21' E 010°37'4 7.4
2018-Jul-12 18:30N 58°17' E 010°37'4 7.6
2018-Jul-12 18:00N 58°13' E 010°37'3 6.5
2018-Jul-12 17:30N 58°11' E 010°42'4 7.2
2018-Jul-12 17:01N 58°10' E 010°48'4 7.5
2018-Jul-12 16:31N 58°08' E 010°54'3 5.3
2018-Jul-12 16:00N 58°06' E 010°57'3 5.5
2018-Jul-12 15:30N 58°03' E 010°56'2 4.0
2018-Jul-12 15:01N 58°01' E 010°53'2 3.8
2018-Jul-12 14:30N 57°60' E 010°52'2 3.4
2018-Jul-12 14:00N 57°58' E 010°51'1 1.5
2018-Jul-12 13:31N 57°58' E 010°50'1 1.1
2018-Jul-12 13:00N 57°57' E 010°49'0 0.9
2018-Jul-12 12:30N 57°57' E 010°48'0 0.9
2018-Jul-12 12:00N 57°57' E 010°47'0 0.8
2018-Jul-12 11:30N 57°56' E 010°47'1 1.0
2018-Jul-12 11:00N 57°57' E 010°46'1 1.1
2018-Jul-12 10:30N 57°57' E 010°45'0 0.9
2018-Jul-12 10:01N 57°57' E 010°44'1 2.0
2018-Jul-12 09:30N 57°56' E 010°43'1 2.6
2018-Jul-12 09:00N 57°56' E 010°40'2 3.2
2018-Jul-12 08:29N 57°55' E 010°38'2 3.7
2018-Jul-12 08:00N 57°54' E 010°35'2 3.0
2018-Jul-12 07:30N 57°53' E 010°33'2 4.5
2018-Jul-12 07:00N 57°51' E 010°31'4 7.0
2018-Jul-12 06:31N 57°50' E 010°37'510.2
2018-Jul-12 06:00N 57°48' E 010°46'  

Dump ship's entire track history